Time;durP1;ratioP1;P1;durP2;ratioP2;P2;SDS_P1;SDS_P2;PMS_P1;PMS_P2;Temp;Humidity;BMP_temperature;BMP_pressure;BME280_temperature;BME280_humidity;BME280_pressure;Samples;Min_cycle;Max_cycle;Signal;HPM_P1;HPM_P2
2021/11/02 00:01:08;;;;;;;1.35;0.73;;;;;;;10.89;97.23;99352.81;5063135;28;20047;-67
2021/11/02 00:03:34;;;;;;;1.15;0.90;;;;;;;10.94;96.90;99354.34;5075033;28;20036;-67
2021/11/02 00:06:00;;;;;;;0.85;0.85;;;;;;;10.98;96.58;99355.88;5073848;28;20182;-67
2021/11/02 00:08:25;;;;;;;0.73;0.63;;;;;;;11.02;96.77;99355.84;5071146;28;20602;-67
2021/11/02 00:10:51;;;;;;;1.52;0.65;;;;;;;11.00;96.88;99350.06;5061033;28;20044;-66
2021/11/02 00:13:19;;;;;;;0.95;0.50;;;;;;;11.01;96.73;99348.94;5081176;28;20434;-66
2021/11/02 00:15:47;;;;;;;1.08;0.80;;;;;;;11.03;96.28;99352.00;5070487;28;20036;-67
2021/11/02 00:18:18;;;;;;;1.88;0.80;;;;;;;10.96;96.92;99354.72;5065563;28;20040;-66
2021/11/02 00:20:43;;;;;;;4.03;0.88;;;;;;;11.01;96.57;99346.25;5065441;28;20037;-67
2021/11/02 00:23:09;;;;;;;1.48;0.70;;;;;;;11.02;96.82;99345.06;5072863;28;20123;-67
2021/11/02 00:25:36;;;;;;;1.80;1.00;;;;;;;10.98;96.61;99349.69;5071288;28;20047;-67
2021/11/02 00:28:04;;;;;;;1.40;0.90;;;;;;;10.96;97.05;99352.00;5067182;28;20386;-66
2021/11/02 00:30:29;;;;;;;1.83;0.70;;;;;;;10.91;97.36;99342.44;5078424;28;20560;-67
2021/11/02 00:32:55;;;;;;;0.95;0.70;;;;;;;10.92;97.30;99343.19;5067775;28;20028;-66
2021/11/02 00:35:22;;;;;;;1.60;1.08;;;;;;;10.95;96.61;99339.72;5074351;28;20064;-67
2021/11/02 00:37:49;;;;;;;2.22;0.82;;;;;;;10.85;97.27;99344.75;5062781;28;20122;-66
2021/11/02 00:40:17;;;;;;;1.30;0.70;;;;;;;10.74;97.94;99341.28;5066454;28;20032;-67
2021/11/02 00:42:54;;;;;;;2.08;0.63;;;;;;;10.75;98.11;99342.84;5074303;28;20119;-66
2021/11/02 00:45:28;;;;;;;1.27;0.75;;;;;;;10.78;97.41;99333.22;5076701;28;20103;-66
2021/11/02 00:47:55;;;;;;;3.95;0.75;;;;;;;10.72;97.93;99338.22;5078902;28;20028;-66
2021/11/02 00:50:20;;;;;;;1.33;1.23;;;;;;;10.67;98.02;99348.63;5067233;28;20052;-66
2021/11/02 00:52:46;;;;;;;0.57;0.57;;;;;;;10.63;98.27;99343.25;5080109;28;20078;-67
2021/11/02 00:55:11;;;;;;;0.60;0.55;;;;;;;10.63;98.14;99329.78;5074268;28;20128;-66
2021/11/02 00:57:37;;;;;;;3.05;0.75;;;;;;;10.62;98.50;99335.56;5070188;28;20585;-67
2021/11/02 01:00:04;;;;;;;2.45;0.85;;;;;;;10.54;98.95;99334.81;5063008;28;20066;-66
2021/11/02 01:02:30;;;;;;;1.25;0.68;;;;;;;10.55;99.19;99330.19;5078653;28;20508;-66
2021/11/02 01:04:55;;;;;;;0.82;0.50;;;;;;;10.52;99.21;99331.72;5069821;28;20112;-66
2021/11/02 01:07:21;;;;;;;1.50;0.90;;;;;;;10.53;98.95;99330.56;5061738;28;20086;-66
2021/11/02 01:09:46;;;;;;;0.80;0.50;;;;;;;10.50;98.98;99331.34;5070188;28;20115;-67
2021/11/02 01:12:12;;;;;;;1.40;0.63;;;;;;;10.45;99.11;99328.28;5069258;28;20036;-66
2021/11/02 01:14:39;;;;;;;0.68;0.68;;;;;;;10.45;98.97;99322.91;5079770;28;20050;-67
2021/11/02 01:17:04;;;;;;;1.35;0.82;;;;;;;10.45;99.13;99320.94;5064929;28;20032;-67
2021/11/02 01:19:30;;;;;;;1.42;0.93;;;;;;;10.46;98.76;99322.50;5077851;28;20469;-67
2021/11/02 01:21:56;;;;;;;1.80;0.80;;;;;;;10.41;99.39;99316.75;5070149;28;20077;-66
2021/11/02 01:24:25;;;;;;;1.23;0.70;;;;;;;10.39;99.33;99319.06;5069637;28;20029;-67
2021/11/02 01:26:51;;;;;;;2.17;0.68;;;;;;;10.46;99.40;99314.44;5070355;28;20040;-66
2021/11/02 01:29:16;;;;;;;0.60;0.60;;;;;;;10.45;99.54;99312.88;5070509;28;20024;-65
2021/11/02 01:31:44;;;;;;;3.33;0.90;;;;;;;10.39;99.46;99319.84;5069882;28;20033;-67
2021/11/02 01:34:10;;;;;;;1.23;1.00;;;;;;;10.38;99.63;99307.50;5068898;28;20511;-67
2021/11/02 01:36:38;;;;;;;0.70;0.65;;;;;;;10.35;100.00;99308.31;5058506;28;20024;-67
2021/11/02 01:39:06;;;;;;;1.55;0.70;;;;;;;10.28;100.00;99307.53;5072798;28;20097;-66
2021/11/02 01:41:32;;;;;;;3.22;1.33;;;;;;;10.36;100.00;99311.75;5067580;28;20056;-66
2021/11/02 01:43:58;;;;;;;1.25;0.85;;;;;;;10.32;100.00;99311.75;5069353;28;20067;-66
2021/11/02 01:46:29;;;;;;;1.10;0.60;;;;;;;10.35;100.00;99316.38;5064615;28;20517;-66
2021/11/02 01:48:57;;;;;;;3.30;0.63;;;;;;;10.31;100.00;99314.81;5071972;28;20028;-66
2021/11/02 01:51:28;;;;;;;1.70;1.00;;;;;;;10.35;100.00;99312.91;5066695;28;20122;-66
2021/11/02 01:53:53;;;;;;;2.30;0.93;;;;;;;10.32;100.00;99305.59;5063417;28;20496;-67
2021/11/02 01:56:21;;;;;;;0.77;0.60;;;;;;;10.30;100.00;99305.97;5067376;28;20033;-66
2021/11/02 01:58:51;;;;;;;4.15;0.93;;;;;;;10.23;100.00;99314.06;5062345;28;20037;-67
2021/11/02 02:01:26;;;;;;;0.60;0.60;;;;;;;10.25;100.00;99308.28;5085008;28;20028;-66
2021/11/02 02:04:10;;;;;;;0.90;0.77;;;;;;;10.16;100.00;99297.16;5073402;28;20025;-66
2021/11/02 02:06:55;;;;;;;1.08;0.73;;;;;;;10.10;100.00;99302.16;5067588;28;20079;-66
2021/11/02 02:09:30;;;;;;;0.73;0.70;;;;;;;10.12;100.00;99307.94;5076216;28;20024;-67
2021/11/02 02:12:18;;;;;;;0.85;0.70;;;;;;;10.09;100.00;99305.19;5066325;28;20033;-66
2021/11/02 02:14:55;;;;;;;0.77;0.50;;;;;;;10.04;100.00;99309.78;5065486;28;20029;-66
2021/11/02 02:17:30;;;;;;;0.95;0.75;;;;;;;10.08;100.00;99315.19;5056407;28;20063;-66
2021/11/02 02:20:40;;;;;;;1.58;0.85;;;;;;;10.03;100.00;99316.34;5065950;28;20514;-66
2021/11/02 02:23:22;;;;;;;1.58;0.93;;;;;;;10.03;100.00;99312.88;5061184;28;20550;-66
2021/11/02 02:26:00;;;;;;;3.17;0.63;;;;;;;9.99;100.00;99312.88;5068320;28;20040;-66
2021/11/02 02:28:36;;;;;;;0.47;0.47;;;;;;;10.00;100.00;99308.28;5056350;28;20502;-67
2021/11/02 02:31:08;;;;;;;5.13;0.70;;;;;;;9.96;100.00;99310.19;5075826;28;20038;-66
2021/11/02 02:33:42;;;;;;;0.73;0.60;;;;;;;9.97;100.00;99300.94;5076518;28;20035;-66
2021/11/02 02:36:10;;;;;;;0.97;0.57;;;;;;;9.93;100.00;99300.19;5078714;28;20033;-66
2021/11/02 02:38:55;;;;;;;0.93;0.80;;;;;;;9.99;100.00;99301.34;5064248;28;20333;-66
2021/11/02 02:41:23;;;;;;;1.40;0.60;;;;;;;9.92;100.00;99295.97;5065120;28;20044;-66
2021/11/02 02:43:51;;;;;;;8.77;0.80;;;;;;;9.92;100.00;99302.13;5067276;28;20032;-67
2021/11/02 02:46:18;;;;;;;3.08;1.00;;;;;;;9.92;100.00;99296.75;5067063;28;20028;-66
2021/11/02 02:48:44;;;;;;;1.75;0.88;;;;;;;9.90;100.00;99295.59;5072611;28;20468;-66
2021/11/02 02:51:12;;;;;;;1.00;0.90;;;;;;;9.88;100.00;99304.03;5066891;28;20032;-66
2021/11/02 02:53:42;;;;;;;1.98;1.83;;;;;;;9.90;100.00;99304.44;5066280;28;20490;-67
2021/11/02 02:56:12;;;;;;;0.80;0.80;;;;;;;9.87;100.00;99304.44;5062448;28;20032;-66
2021/11/02 02:58:43;;;;;;;0.70;0.70;;;;;;;9.83;100.00;99301.72;5067966;28;20447;-66
2021/11/02 03:01:11;;;;;;;1.05;0.70;;;;;;;9.80;100.00;99304.41;5066085;28;20066;-66
2021/11/02 03:03:44;;;;;;;4.22;1.10;;;;;;;9.78;100.00;99298.63;5061197;28;20144;-67
2021/11/02 03:06:13;;;;;;;2.95;1.02;;;;;;;9.74;100.00;99297.88;5069404;28;20032;-66
2021/11/02 03:08:40;;;;;;;0.95;0.85;;;;;;;9.65;100.00;99295.56;5062670;28;20051;-66
2021/11/02 03:11:07;;;;;;;0.80;0.70;;;;;;;9.67;100.00;99300.56;5071014;28;20032;-66
2021/11/02 03:13:35;;;;;;;1.55;0.88;;;;;;;9.64;100.00;99301.31;5077882;28;20118;-66
2021/11/02 03:16:06;;;;;;;2.92;0.90;;;;;;;9.60;100.00;99298.59;5082623;28;20035;-67
2021/11/02 03:44:38;;;;;;;0.75;0.60;;;;;;;9.37;100.00;99303.53;4993983;28;20034;-67
2021/11/02 03:50:01;;;;;;;0.63;0.52;;;;;;;9.34;100.00;99303.53;5002963;28;20092;-67
2021/11/02 03:55:06;;;;;;;3.10;0.80;;;;;;;9.41;100.00;99298.94;4998077;28;20038;-67
2021/11/02 03:57:55;;;;;;;3.72;1.20;;;;;;;9.37;100.00;99305.47;4994056;28;20523;-67
2021/11/02 04:28:22;;;;;;;0.90;0.60;;;;;;;9.15;100.00;99295.81;5080752;28;20033;-67
2021/11/02 05:53:31;;;;;;;1.25;0.90;;;;;;;8.82;100.00;99286.84;5059941;28;20490;-67
2021/11/02 05:58:30;;;;;;;2.42;1.30;;;;;;;8.67;100.00;99274.50;5059520;28;20032;-67
2021/11/02 06:03:42;;;;;;;1.65;0.77;;;;;;;8.65;100.00;99284.06;5066077;28;20025;-67
2021/11/02 06:06:38;;;;;;;1.25;1.00;;;;;;;8.57;100.00;99288.63;5067165;28;20037;-66
2021/11/02 06:29:02;;;;;;;3.08;0.93;;;;;;;8.33;100.00;99305.31;5064488;28;20032;-66
2021/11/02 06:31:35;;;;;;;1.25;1.00;;;;;;;8.35;100.00;99304.94;5056488;28;20036;-67
2021/11/02 06:50:48;;;;;;;1.65;1.15;;;;;;;8.44;100.00;99318.81;5071023;28;20079;-66
2021/11/02 06:55:58;;;;;;;1.20;1.10;;;;;;;8.49;100.00;99329.19;5078437;28;20079;-66
2021/11/02 07:19:19;;;;;;;1.30;1.13;;;;;;;8.96;100.00;99350.59;5061766;28;20123;-67
2021/11/02 07:24:38;;;;;;;3.08;1.42;;;;;;;8.99;100.00;99358.66;5069787;28;20047;-67
2021/11/02 08:45:35;;;;;;;2.63;1.55;;;;;;;10.22;100.00;99339.41;5062839;28;20037;-65
2021/11/02 08:48:02;;;;;;;1.23;0.82;;;;;;;10.26;100.00;99339.44;5068264;28;20034;-66
2021/11/02 08:50:36;;;;;;;3.08;1.77;;;;;;;10.32;100.00;99352.09;5069049;28;20945;-65
2021/11/02 08:53:04;;;;;;;2.22;1.45;;;;;;;10.33;100.00;99342.91;5068908;28;20028;-65
2021/11/02 08:55:33;;;;;;;2.72;1.40;;;;;;;10.49;100.00;99342.50;5061697;28;20634;-65
2021/11/02 08:57:59;;;;;;;2.63;1.38;;;;;;;10.60;99.54;99335.94;5068304;28;20488;-66
2021/11/02 09:00:24;;;;;;;2.00;1.25;;;;;;;10.66;97.99;99336.31;5064157;28;20119;-66
2021/11/02 09:02:53;;;;;;;4.57;1.67;;;;;;;10.56;98.41;99339.78;5068788;28;20112;-66
2021/11/02 09:05:30;;;;;;;2.42;1.23;;;;;;;10.64;98.06;99339.41;5058979;28;20043;-65
2021/11/02 09:07:59;;;;;;;2.72;1.20;;;;;;;10.67;97.75;99344.00;5069173;28;20173;-65
2021/11/02 09:10:25;;;;;;;1.92;1.05;;;;;;;10.57;98.49;99335.94;5057777;28;20110;-66
2021/11/02 09:12:54;;;;;;;2.67;1.35;;;;;;;10.67;97.48;99341.31;5065447;28;20025;-66
2021/11/02 09:15:36;;;;;;;1.63;1.13;;;;;;;10.66;97.44;99339.00;5057231;28;20047;-66
2021/11/02 09:18:07;;;;;;;0.60;0.60;;;;;;;10.65;98.12;99343.63;5067303;28;20399;-66
2021/11/02 09:20:33;;;;;;;1.50;0.88;;;;;;;10.65;98.11;99348.22;5057562;28;20478;-65
2021/11/02 09:22:59;;;;;;;4.75;1.50;;;;;;;10.76;98.05;99338.22;5068747;28;20414;-65
2021/11/02 09:25:25;;;;;;;3.83;1.10;;;;;;;10.82;97.82;99332.03;5068310;28;20498;-66
2021/11/02 09:27:51;;;;;;;3.35;1.10;;;;;;;10.96;96.34;99335.84;5067360;28;20033;-65
2021/11/02 09:30:20;;;;;;;2.67;1.17;;;;;;;10.96;96.68;99333.94;5067178;28;20186;-64
2021/11/02 09:32:47;;;;;;;1.60;1.00;;;;;;;11.01;96.38;99335.47;5064164;28;20717;-66
2021/11/02 09:35:15;;;;;;;2.70;1.30;;;;;;;11.01;96.05;99327.38;5066298;28;20100;-65
2021/11/02 09:38:02;;;;;;;2.58;1.20;;;;;;;11.10;96.72;99333.91;5065165;28;20463;-65
2021/11/02 09:40:30;;;;;;;1.13;1.02;;;;;;;11.30;96.85;99331.50;5057784;28;20052;-66
2021/11/02 09:43:22;;;;;;;2.05;1.20;;;;;;;11.35;96.83;99328.41;5059031;28;20064;-66
2021/11/02 09:46:09;;;;;;;2.05;1.50;;;;;;;11.47;95.56;99327.97;5065489;28;20049;-65
2021/11/02 09:48:43;;;;;;;2.70;1.10;;;;;;;11.55;95.76;99330.25;5063102;28;20105;-65
2021/11/02 09:51:30;;;;;;;1.50;0.98;;;;;;;11.56;95.31;99329.06;5055152;28;20057;-65
2021/11/02 09:54:01;;;;;;;1.30;0.90;;;;;;;11.65;95.39;99334.81;5073592;28;20079;-66
2021/11/02 09:56:29;;;;;;;;;;;;;;;11.61;95.09;99331.34;5078941;28;20112;-67
2021/11/02 09:59:04;;;;;;;1.58;1.00;;;;;;;11.69;95.36;99326.72;5065856;28;19916;-66
2021/11/02 10:01:58;;;;;;;2.58;1.30;;;;;;;11.77;94.86;99328.97;5060491;28;20028;-66
2021/11/02 10:04:48;;;;;;;1.75;1.17;;;;;;;11.89;94.14;99322.34;5065926;28;20073;-65
2021/11/02 10:07:29;;;;;;;4.20;2.33;;;;;;;11.98;93.17;99324.59;5071078;28;20101;-66
2021/11/02 10:10:13;;;;;;;2.63;1.40;;;;;;;12.03;92.20;99327.66;5060115;28;20045;-66
2021/11/02 10:13:01;;;;;;;2.67;1.17;;;;;;;12.05;91.81;99325.31;5061900;28;20043;-65
2021/11/02 10:15:43;;;;;;;2.65;1.98;;;;;;;12.10;91.69;99327.59;5061409;28;20044;-67
2021/11/02 10:18:17;;;;;;;3.35;1.20;;;;;;;12.15;92.21;99329.09;5064872;28;20036;-66
2021/11/02 10:21:21;;;;;;;1.35;1.13;;;;;;;12.21;92.35;99331.00;5065596;28;20510;-65
2021/11/02 10:23:56;;;;;;;3.20;1.10;;;;;;;12.29;91.86;99334.38;5061345;28;20033;-66
2021/11/02 10:26:35;;;;;;;2.50;1.30;;;;;;;12.39;91.61;99339.69;5071563;28;20040;-66
2021/11/02 10:29:34;;;;;;;1.30;1.17;;;;;;;12.41;91.16;99337.34;5064322;28;20111;-66
2021/11/02 10:32:06;;;;;;;5.53;1.55;;;;;;;12.49;91.32;99332.66;5064173;28;20090;-65
2021/11/02 10:34:52;;;;;;;1.75;1.08;;;;;;;12.62;90.17;99328.28;5062668;28;20036;-66
2021/11/02 10:37:39;;;;;;;1.98;1.10;;;;;;;12.64;90.14;99324.03;5054413;28;20028;-66
2021/11/02 10:40:14;;;;;;;2.22;1.20;;;;;;;12.73;89.76;99320.88;5060137;28;20086;-65
2021/11/02 10:42:49;;;;;;;2.55;1.60;;;;;;;12.76;89.94;99330.06;5055315;28;20033;-66
2021/11/02 10:45:17;;;;;;;1.90;1.23;;;;;;;12.77;89.96;99331.63;5076048;28;20033;-66
2021/11/02 10:48:09;;;;;;;3.45;1.42;;;;;;;12.82;88.45;99328.47;5061669;28;20039;-66
2021/11/02 10:50:46;;;;;;;1.27;0.90;;;;;;;12.76;88.89;99320.03;5061659;28;20438;-65
2021/11/02 10:53:22;;;;;;;3.67;1.55;;;;;;;12.84;88.61;99328.84;5060670;28;20032;-66
2021/11/02 10:56:04;;;;;;;2.03;1.08;;;;;;;12.77;89.19;99326.22;5055212;28;20415;-65
2021/11/02 10:58:49;;;;;;;1.20;0.80;;;;;;;12.78;89.16;99322.34;5069618;28;20546;-66
2021/11/02 11:01:15;;;;;;;5.72;1.42;;;;;;;12.82;89.26;99331.19;5061971;28;20461;-66
2021/11/02 11:03:42;;;;;;;1.95;1.08;;;;;;;12.86;89.30;99321.88;5065501;28;20487;-65
2021/11/02 11:06:10;;;;;;;5.63;1.20;;;;;;;12.87;89.41;99325.34;5064218;28;20036;-65
2021/11/02 11:08:39;;;;;;;3.25;2.10;;;;;;;12.94;88.88;99314.47;5058961;28;20052;-66
2021/11/02 11:11:07;;;;;;;1.58;1.13;;;;;;;12.94;88.63;99317.94;5062227;28;20427;-65
2021/11/02 11:13:34;;;;;;;1.95;1.23;;;;;;;12.94;88.50;99303.66;5057529;28;20037;-66
2021/11/02 11:16:05;;;;;;;2.47;1.58;;;;;;;13.03;87.73;99317.44;5070343;28;20447;-65
2021/11/02 11:18:52;;;;;;;1.90;1.10;;;;;;;13.08;87.51;99315.09;5067135;28;20036;-65
2021/11/02 11:21:19;;;;;;;0.82;0.75;;;;;;;13.24;87.80;99304.47;5061480;28;20033;-67
2021/11/02 11:23:54;;;;;;;2.55;1.45;;;;;;;13.37;87.49;99297.38;5067072;28;20039;-65
2021/11/02 11:26:24;;;;;;;1.90;1.20;;;;;;;13.53;87.28;99307.56;5059170;28;20029;-65
2021/11/02 11:28:52;;;;;;;4.28;1.50;;;;;;;13.62;85.66;99302.44;5068902;28;20064;-66
2021/11/02 11:31:19;;;;;;;1.08;0.98;;;;;;;13.61;85.42;99298.16;5069013;28;20040;-66
2021/11/02 11:34:05;;;;;;;2.95;1.50;;;;;;;13.59;85.58;99289.69;5054118;28;20041;-66
2021/11/02 11:36:33;;;;;;;2.88;1.33;;;;;;;13.59;84.80;99292.41;5067846;28;20032;-66
2021/11/02 11:39:03;;;;;;;3.42;1.33;;;;;;;13.61;84.47;99300.88;5060486;28;20101;-67
2021/11/02 11:41:33;;;;;;;1.40;1.13;;;;;;;13.57;84.01;99286.63;5057174;28;20713;-66
2021/11/02 11:44:01;;;;;;;;;;;;;;;13.45;84.77;99295.31;5066317;28;20039;-67
2021/11/02 11:46:28;;;;;;;1.10;0.85;;;;;;;13.41;85.24;99283.78;5067714;28;19916;-65
2021/11/02 11:48:56;;;;;;;2.53;1.17;;;;;;;13.44;85.49;99285.66;5070464;28;20032;-67
2021/11/02 11:51:25;;;;;;;1.88;1.13;;;;;;;13.54;84.09;99290.94;5063224;28;20037;-66
2021/11/02 11:54:03;;;;;;;1.73;1.20;;;;;;;13.51;84.19;99291.00;5059305;28;20855;-65
2021/11/02 11:56:38;;;;;;;1.70;1.02;;;;;;;13.55;84.06;99283.56;5063048;28;20405;-65
2021/11/02 11:59:15;;;;;;;2.30;1.17;;;;;;;13.54;84.34;99282.06;5060278;28;20403;-66
2021/11/02 12:01:55;;;;;;;2.85;1.10;;;;;;;13.56;84.07;99280.47;5067653;28;20036;-66
2021/11/02 12:04:32;;;;;;;6.93;1.13;;;;;;;13.54;84.20;99282.81;5071312;28;20094;-66
2021/11/02 12:07:37;;;;;;;3.38;1.27;;;;;;;13.56;83.58;99285.13;5067506;28;20075;-65
2021/11/02 12:10:11;;;;;;;2.50;1.77;;;;;;;13.59;83.54;99290.47;5060080;28;20033;-65
2021/11/02 12:12:42;;;;;;;2.42;0.93;;;;;;;13.67;83.42;99291.13;5060927;28;20037;-66
2021/11/02 12:15:17;;;;;;;2.10;1.33;;;;;;;13.64;83.95;99291.19;5062430;28;20032;-65
2021/11/02 12:17:45;;;;;;;1.83;1.10;;;;;;;13.66;84.14;99284.22;5059350;28;20038;-67
2021/11/02 12:20:13;;;;;;;2.63;1.15;;;;;;;13.71;83.68;99283.72;5062581;28;20436;-65
2021/11/02 12:22:46;;;;;;;1.38;0.90;;;;;;;13.73;83.23;99284.09;5060255;28;20133;-66
2021/11/02 12:25:19;;;;;;;1.13;0.98;;;;;;;13.77;83.63;99295.63;5062261;28;20040;-65
2021/11/02 12:27:46;;;;;;;4.63;1.45;;;;;;;13.77;83.92;99284.81;5059494;28;20032;-65
2021/11/02 12:30:15;;;;;;;2.15;1.17;;;;;;;13.71;84.06;99281.03;5054797;28;20044;-66
2021/11/02 12:32:46;;;;;;;2.53;1.20;;;;;;;13.77;84.03;99289.44;5065815;28;20036;-66
2021/11/02 12:35:19;;;;;;;4.15;1.73;;;;;;;13.72;84.38;99282.56;5062385;28;20036;-70
2021/11/02 12:37:53;;;;;;;2.30;1.52;;;;;;;13.68;85.22;99275.69;5063662;28;20508;-66
2021/11/02 12:40:27;;;;;;;3.40;1.70;;;;;;;13.69;84.61;99283.38;5064088;28;20608;-66
2021/11/02 12:42:53;;;;;;;1.45;0.80;;;;;;;13.72;84.61;99282.56;5060552;28;20040;-65
2021/11/02 12:45:21;;;;;;;4.05;1.42;;;;;;;13.67;85.35;99280.31;5069293;28;20033;-64
2021/11/02 12:47:48;;;;;;;3.38;1.52;;;;;;;13.64;85.81;99285.78;5062623;28;20033;-65
2021/11/02 12:50:21;;;;;;;2.65;1.17;;;;;;;13.73;86.13;99288.72;5067250;28;20025;-65
2021/11/02 12:52:47;;;;;;;2.10;1.42;;;;;;;13.80;85.47;99286.69;5064126;28;20029;-65
2021/11/02 12:55:24;;;;;;;1.40;1.20;;;;;;;13.86;85.26;99282.34;5062400;28;20079;-65
2021/11/02 12:58:11;;;;;;;2.67;1.35;;;;;;;13.86;85.58;99282.34;5063841;28;20118;-65
2021/11/02 13:00:51;;;;;;;2.05;1.38;;;;;;;13.87;85.18;99277.69;5065482;28;20029;-67
2021/11/02 13:03:25;;;;;;;2.60;1.58;;;;;;;13.85;85.74;99290.88;5062838;28;20123;-67
2021/11/02 13:06:06;;;;;;;4.13;1.50;;;;;;;13.82;85.54;99287.03;5060743;28;20032;-65
2021/11/02 13:08:40;;;;;;;1.65;1.27;;;;;;;13.81;85.23;99282.03;5064365;28;20064;-65
2021/11/02 13:11:12;;;;;;;1.95;1.30;;;;;;;13.83;84.97;99294.00;5061246;28;20036;-65
2021/11/02 13:13:59;;;;;;;4.53;1.30;;;;;;;13.74;85.59;99284.88;5055256;28;20425;-65
2021/11/02 13:16:28;;;;;;;2.03;1.40;;;;;;;13.80;85.76;99289.38;5064295;28;20121;-65
2021/11/02 13:18:54;;;;;;;1.67;1.15;;;;;;;13.80;85.94;99281.28;5063499;28;20537;-66
2021/11/02 13:21:22;;;;;;;3.47;1.50;;;;;;;13.86;85.02;99287.75;5060843;28;20043;-65
2021/11/02 13:23:59;;;;;;;1.65;1.30;;;;;;;13.87;85.65;99272.28;5061553;28;20090;-64
2021/11/02 13:26:26;;;;;;;3.30;1.67;;;;;;;13.94;85.11;99288.41;5066272;28;20050;-66
2021/11/02 13:28:54;;;;;;;2.25;1.42;;;;;;;13.89;85.10;99283.47;5061674;28;20174;-66
2021/11/02 13:31:34;;;;;;;1.02;0.93;;;;;;;13.77;85.59;99289.44;5062176;28;20036;-66
2021/11/02 13:34:05;;;;;;;2.20;1.10;;;;;;;13.86;85.19;99285.03;5064587;28;20040;-66
2021/11/02 13:36:31;;;;;;;;;;;;;;;13.76;85.15;99286.00;5061660;28;20097;-66
2021/11/02 13:39:16;;;;;;;2.30;1.27;;;;;;;13.77;85.22;99284.03;5055828;28;19916;-65
2021/11/02 13:41:50;;;;;;;2.88;1.35;;;;;;;13.75;85.35;99289.09;5056905;28;20071;-66
2021/11/02 13:44:18;;;;;;;3.05;1.30;;;;;;;13.76;85.83;99283.28;5057714;28;20099;-65
2021/11/02 13:46:47;;;;;;;1.20;0.68;;;;;;;13.82;86.03;99278.91;5063348;28;20447;-65
2021/11/02 13:49:15;;;;;;;4.40;1.00;;;;;;;13.84;85.79;99283.94;5065459;28;20032;-65
2021/11/02 13:51:41;;;;;;;1.83;1.10;;;;;;;13.78;86.40;99288.28;5060734;28;20123;-66
2021/11/02 13:54:08;;;;;;;3.92;1.08;;;;;;;13.74;86.75;99282.16;5061852;28;20111;-67
2021/11/02 13:56:41;;;;;;;3.25;1.50;;;;;;;13.77;86.58;99279.41;5064222;28;20052;-68
2021/11/02 13:59:09;;;;;;;1.70;0.80;;;;;;;13.86;86.56;99287.75;5061365;28;20034;-66
2021/11/02 14:01:50;;;;;;;2.78;1.20;;;;;;;13.78;87.01;99280.91;5062600;28;20090;-65
2021/11/02 14:04:32;;;;;;;2.20;1.20;;;;;;;13.78;86.84;99282.88;5058341;28;20048;-65
2021/11/02 14:07:03;;;;;;;2.50;1.30;;;;;;;13.82;86.75;99281.63;5060742;28;20036;-65
2021/11/02 14:09:36;;;;;;;2.95;1.48;;;;;;;13.85;86.80;99280.06;5063360;28;20047;-65
2021/11/02 14:12:18;;;;;;;4.03;1.45;;;;;;;13.89;85.49;99284.25;5062099;28;20037;-65
2021/11/02 14:14:44;;;;;;;5.38;1.60;;;;;;;13.86;85.81;99287.00;5063101;28;20048;-66
2021/11/02 14:17:15;;;;;;;1.63;1.20;;;;;;;13.85;84.79;99286.22;5058510;28;20025;-66
2021/11/02 14:19:42;;;;;;;1.60;1.10;;;;;;;13.81;85.06;99287.44;5057511;28;20637;-65
2021/11/02 14:22:12;;;;;;;2.28;1.20;;;;;;;13.85;84.22;99288.16;5064366;28;20036;-66
2021/11/02 14:24:45;;;;;;;3.58;1.85;;;;;;;13.78;84.48;99291.00;5058009;28;20037;-68
2021/11/02 14:27:21;;;;;;;2.63;1.33;;;;;;;13.76;84.08;99287.94;5065013;28;20573;-65
2021/11/02 14:29:51;;;;;;;0.93;0.77;;;;;;;13.73;84.55;99286.78;5063665;28;20063;-68
2021/11/02 14:32:46;;;;;;;4.20;1.30;;;;;;;13.69;84.31;99288.78;5059406;28;20025;-65
2021/11/02 14:35:32;;;;;;;2.40;1.30;;;;;;;13.71;84.66;99288.38;5059713;28;20076;-66
2021/11/02 14:38:31;;;;;;;2.03;1.63;;;;;;;13.75;83.39;99280.97;5069056;28;20028;-66
2021/11/02 14:40:58;;;;;;;2.75;1.08;;;;;;;13.74;83.56;99291.06;5040671;28;20456;-66
2021/11/02 14:43:32;;;;;;;1.67;1.20;;;;;;;13.68;83.92;99289.97;5063840;28;20040;-66
2021/11/02 14:46:03;;;;;;;2.08;1.15;;;;;;;13.67;84.03;99295.78;5064827;28;20167;-66
2021/11/02 14:48:32;;;;;;;2.25;1.27;;;;;;;13.61;84.06;99290.06;5063346;28;20135;-66
2021/11/02 14:50:58;;;;;;;2.28;1.38;;;;;;;13.59;84.35;99293.19;5055895;28;20059;-66
2021/11/02 14:53:29;;;;;;;1.30;0.95;;;;;;;13.49;85.23;99296.78;5060113;28;20031;-66
2021/11/02 14:55:56;;;;;;;1.75;0.93;;;;;;;13.49;85.74;99302.19;5063048;28;20020;-66
2021/11/02 14:58:43;;;;;;;3.22;1.23;;;;;;;13.55;84.74;99291.69;5064943;28;20510;-65
2021/11/02 15:01:33;;;;;;;0.98;0.88;;;;;;;13.47;85.41;99304.53;5075767;28;20110;-66
2021/11/02 15:04:06;;;;;;;3.85;1.17;;;;;;;13.49;85.28;99304.91;5062964;28;20082;-66
2021/11/02 15:06:31;;;;;;;2.80;1.17;;;;;;;13.47;84.30;99301.84;5063129;28;20037;-66
2021/11/02 15:08:58;;;;;;;7.93;1.00;;;;;;;13.49;82.82;99306.88;5060218;28;20033;-65
2021/11/02 15:11:24;;;;;;;1.00;0.88;;;;;;;13.43;82.21;99303.06;5065410;28;20044;-66
2021/11/02 15:13:58;;;;;;;1.92;1.00;;;;;;;13.38;82.17;99303.50;5064327;28;20029;-66
2021/11/02 15:16:25;;;;;;;1.95;1.05;;;;;;;13.39;81.39;99307.78;5069188;28;20032;-67
2021/11/02 15:18:58;;;;;;;2.58;1.02;;;;;;;13.37;81.74;99299.28;5064935;28;20065;-65
2021/11/02 15:21:29;;;;;;;1.98;1.08;;;;;;;13.38;80.43;99308.94;5060694;28;20068;-66
2021/11/02 15:23:55;;;;;;;4.65;0.90;;;;;;;13.37;80.44;99300.06;5046907;28;20402;-66
2021/11/02 15:26:21;;;;;;;1.05;0.70;;;;;;;13.28;81.09;99302.47;5064112;28;20037;-66
2021/11/02 15:28:50;;;;;;;6.50;0.80;;;;;;;13.22;81.80;99298.69;5064205;28;20033;-66
2021/11/02 15:31:21;;;;;;;1.50;0.90;;;;;;;13.15;82.49;99306.13;5062514;28;20658;-66
2021/11/02 15:33:47;;;;;;;0.90;0.77;;;;;;;13.16;82.89;99299.56;5070744;28;20075;-65
2021/11/02 15:36:14;;;;;;;2.28;1.15;;;;;;;13.19;82.63;99301.44;5063452;28;20044;-66
2021/11/02 15:38:40;;;;;;;1.83;0.95;;;;;;;13.17;82.36;99311.91;5071689;28;20046;-67
2021/11/02 15:41:21;;;;;;;1.00;0.93;;;;;;;13.15;82.17;99309.59;5055676;28;20037;-66
2021/11/02 15:43:55;;;;;;;2.63;1.20;;;;;;;13.16;82.39;99307.69;5066923;28;20028;-67
2021/11/02 15:46:23;;;;;;;1.40;0.75;;;;;;;13.06;83.20;99305.84;5066059;28;20520;-65
2021/11/02 15:48:53;;;;;;;2.03;0.88;;;;;;;13.06;83.19;99313.97;5065826;28;20031;-66
2021/11/02 15:51:19;;;;;;;1.25;0.75;;;;;;;13.04;83.45;99300.88;5063410;28;20111;-66
2021/11/02 15:53:45;;;;;;;0.93;0.75;;;;;;;13.05;83.69;99320.53;5064279;28;20087;-67
2021/11/02 15:56:10;;;;;;;1.20;0.70;;;;;;;12.99;84.33;99309.38;5065117;28;20378;-66
2021/11/02 15:58:36;;;;;;;1.55;0.80;;;;;;;13.01;84.45;99309.72;5067289;28;20143;-66
2021/11/02 16:01:01;;;;;;;1.52;1.20;;;;;;;12.99;84.68;99311.31;5065710;28;20486;-66
2021/11/02 16:03:32;;;;;;;2.42;1.10;;;;;;;13.00;84.58;99318.25;5067071;28;20474;-66
2021/11/02 16:05:58;;;;;;;2.50;0.93;;;;;;;12.92;85.46;99319.50;5064036;28;20037;-66
2021/11/02 16:08:24;;;;;;;1.95;0.90;;;;;;;12.90;85.71;99325.31;5067633;28;20101;-66
2021/11/02 16:10:53;;;;;;;1.48;0.90;;;;;;;12.94;85.92;99319.84;5058669;28;20055;-65
2021/11/02 16:13:28;;;;;;;1.27;1.08;;;;;;;12.96;85.65;99318.28;5068848;28;20032;-66
2021/11/02 16:15:55;;;;;;;1.42;1.10;;;;;;;12.96;85.60;99314.81;5065709;28;20103;-65
2021/11/02 16:18:27;;;;;;;6.30;1.65;;;;;;;12.97;85.70;99321.78;5064430;28;20039;-65
2021/11/02 16:20:56;;;;;;;2.38;1.30;;;;;;;12.92;86.22;99319.50;5062921;28;20119;-66
2021/11/02 16:23:24;;;;;;;2.22;1.20;;;;;;;12.96;85.97;99331.81;5068068;28;20510;-66
2021/11/02 16:25:51;;;;;;;2.03;1.13;;;;;;;12.92;86.27;99319.50;5069594;28;20032;-68
2021/11/02 16:28:19;;;;;;;2.83;1.42;;;;;;;12.89;86.10;99317.63;5067972;28;20101;-67
2021/11/02 16:30:46;;;;;;;4.97;1.25;;;;;;;12.85;86.53;99316.88;5069653;28;20376;-67
2021/11/02 16:33:12;;;;;;;2.97;1.40;;;;;;;12.90;86.82;99319.13;5070214;28;20037;-65
2021/11/02 16:35:42;;;;;;;2.60;1.15;;;;;;;12.90;86.59;99324.53;5068604;28;20028;-68
2021/11/02 16:38:32;;;;;;;2.58;1.45;;;;;;;12.84;86.80;99326.13;5071478;28;20394;-67
2021/11/02 16:41:07;;;;;;;2.08;1.50;;;;;;;12.83;86.98;99321.91;5073761;28;20742;-67
2021/11/02 16:43:58;;;;;;;1.67;1.30;;;;;;;12.83;86.84;99327.31;5067189;28;20632;-67
2021/11/02 16:46:26;;;;;;;2.72;1.55;;;;;;;12.82;87.59;99323.06;5085644;28;20036;-67